Time;durP1;ratioP1;P1;durP2;ratioP2;P2;SDS_P1;SDS_P2;PMS_P1;PMS_P2;Temp;Humidity;BMP_temperature;BMP_pressure;BME280_temperature;BME280_humidity;BME280_pressure;Samples;Min_cycle;Max_cycle;Signal;HPM_P1;HPM_P2
2021/10/13 00:01:31;;;;;;;1.35;0.30;;;15.90;79.30;;;;;;5091704;28;20036;-63
2021/10/13 00:03:57;;;;;;;0.57;0.40;;;15.80;79.20;;;;;;5091347;28;20048;-61
2021/10/13 00:06:22;;;;;;;1.27;0.45;;;15.90;79.30;;;;;;5092443;28;20083;-62
2021/10/13 00:08:48;;;;;;;0.50;0.47;;;15.90;79.30;;;;;;5091674;28;20044;-61
2021/10/13 00:11:14;;;;;;;0.40;0.40;;;15.90;79.20;;;;;;5091490;28;20040;-61
2021/10/13 00:13:39;;;;;;;1.33;0.40;;;15.80;79.20;;;;;;5092381;28;20061;-63
2021/10/13 00:16:05;;;;;;;0.70;0.40;;;15.80;79.20;;;;;;5091968;28;20519;-61
2021/10/13 00:18:31;;;;;;;0.40;0.40;;;15.90;79.20;;;;;;5090761;28;20434;-60
2021/10/13 00:20:57;;;;;;;1.35;0.47;;;15.90;79.30;;;;;;5092061;28;20494;-62
2021/10/13 00:23:25;;;;;;;0.40;0.35;;;15.80;79.20;;;;;;5091678;28;20058;-62
2021/10/13 00:25:51;;;;;;;2.63;0.30;;;15.80;79.20;;;;;;5091642;28;20548;-62
2021/10/13 00:28:17;;;;;;;0.40;0.35;;;15.90;79.20;;;;;;5091494;28;20044;-61
2021/10/13 00:30:42;;;;;;;0.30;0.30;;;15.80;79.20;;;;;;5091490;28;20070;-62
2021/10/13 00:33:08;;;;;;;0.30;0.30;;;15.80;79.20;;;;;;5091759;28;20044;-62
2021/10/13 00:35:34;;;;;;;0.70;0.50;;;15.80;79.20;;;;;;5090515;28;20404;-62
2021/10/13 00:37:59;;;;;;;1.20;0.60;;;15.80;79.20;;;;;;5090358;28;20040;-62
2021/10/13 00:40:26;;;;;;;0.43;0.40;;;15.80;79.20;;;;;;5090992;28;20499;-62
2021/10/13 00:42:52;;;;;;;0.88;0.50;;;15.80;79.20;;;;;;5091554;28;20044;-62
2021/10/13 00:45:18;;;;;;;1.08;0.40;;;15.80;79.20;;;;;;5091630;28;20040;-62
2021/10/13 00:47:44;;;;;;;0.57;0.40;;;15.80;79.20;;;;;;5091749;28;20069;-62
2021/10/13 00:50:11;;;;;;;0.60;0.50;;;15.80;79.10;;;;;;5089564;28;20044;-61
2021/10/13 00:52:41;;;;;;;0.40;0.35;;;15.80;79.20;;;;;;5092248;28;20047;-61
2021/10/13 00:55:09;;;;;;;0.60;0.45;;;15.90;79.20;;;;;;5095280;28;20139;-62
2021/10/13 00:57:34;;;;;;;0.60;0.40;;;15.80;79.20;;;;;;5093573;28;20047;-62
2021/10/13 01:00:00;;;;;;;1.17;0.40;;;15.80;79.20;;;;;;5095077;28;20403;-63
2021/10/13 01:02:32;;;;;;;0.32;0.32;;;15.80;79.20;;;;;;5095410;28;20372;-62
2021/10/13 01:05:17;;;;;;;0.40;0.40;;;15.80;79.20;;;;;;5095000;28;20446;-62
2021/10/13 01:08:06;;;;;;;0.45;0.30;;;15.80;79.20;;;;;;5095419;28;20149;-62
2021/10/13 01:11:02;;;;;;;2.63;0.40;;;15.80;79.20;;;;;;5094697;28;20123;-61
2021/10/13 01:13:49;;;;;;;0.40;0.30;;;15.80;79.20;;;;;;5094036;28;20494;-62
2021/10/13 01:16:41;;;;;;;0.38;0.38;;;15.80;79.20;;;;;;5095232;28;20040;-62
2021/10/13 01:19:23;;;;;;;0.40;0.40;;;15.80;79.20;;;;;;5094543;28;20067;-62
2021/10/13 01:22:16;;;;;;;0.52;0.40;;;15.80;79.20;;;;;;5094443;28;20052;-62
2021/10/13 01:24:59;;;;;;;0.47;0.40;;;15.80;79.30;;;;;;5095037;28;20502;-64
2021/10/13 01:27:49;;;;;;;0.55;0.32;;;15.80;79.90;;;;;;5094356;28;20048;-62
2021/10/13 01:30:17;;;;;;;0.30;0.30;;;15.80;79.20;;;;;;5085439;28;20059;-62
2021/10/13 01:32:47;;;;;;;0.50;0.30;;;15.80;79.20;;;;;;5094792;28;20044;-62
2021/10/13 01:35:16;;;;;;;0.73;0.40;;;15.80;79.20;;;;;;5094918;28;20062;-63
2021/10/13 01:37:48;;;;;;;0.73;0.32;;;15.80;79.20;;;;;;5094251;28;20067;-60
2021/10/13 01:40:15;;;;;;;0.47;0.30;;;15.80;79.20;;;;;;5094274;28;20122;-62
2021/10/13 01:42:49;;;;;;;0.40;0.35;;;15.80;79.20;;;;;;5094310;28;20172;-62
2021/10/13 01:45:17;;;;;;;0.63;0.30;;;15.80;79.20;;;;;;5094435;28;20433;-62
2021/10/13 01:47:46;;;;;;;0.60;0.60;;;15.80;79.20;;;;;;5093247;28;20036;-62
2021/10/13 01:50:12;;;;;;;0.60;0.30;;;15.80;79.20;;;;;;5094865;28;20115;-62
2021/10/13 01:52:39;;;;;;;0.28;0.28;;;15.70;79.20;;;;;;5094295;28;20044;-61
2021/10/13 01:55:06;;;;;;;0.75;0.50;;;15.80;79.20;;;;;;5094561;28;20142;-61
2021/10/13 01:57:34;;;;;;;0.43;0.30;;;15.80;79.20;;;;;;5094026;28;20061;-62
2021/10/13 02:00:06;;;;;;;0.55;0.50;;;15.80;79.20;;;;;;5093968;28;20450;-62
2021/10/13 02:02:34;;;;;;;0.50;0.50;;;15.80;79.20;;;;;;5094495;28;20040;-62
2021/10/13 02:05:02;;;;;;;0.47;0.20;;;15.80;79.20;;;;;;5093703;28;20047;-62
2021/10/13 02:07:30;;;;;;;0.68;0.38;;;15.80;79.20;;;;;;5094287;28;20098;-62
2021/10/13 02:10:01;;;;;;;0.95;0.40;;;15.70;79.10;;;;;;5093686;28;20037;-61
2021/10/13 02:12:28;;;;;;;0.20;0.20;;;15.80;79.20;;;;;;5093916;28;20036;-62
2021/10/13 02:14:55;;;;;;;0.55;0.35;;;15.80;79.20;;;;;;5094030;28;20067;-63
2021/10/13 02:17:23;;;;;;;0.30;0.30;;;15.80;79.20;;;;;;5093917;28;20071;-63
2021/10/13 02:19:52;;;;;;;0.55;0.32;;;15.80;79.20;;;;;;5093998;28;20878;-61
2021/10/13 02:22:20;;;;;;;0.93;0.50;;;15.80;79.20;;;;;;5094085;28;20039;-62
2021/10/13 02:24:51;;;;;;;0.30;0.30;;;15.80;79.20;;;;;;5093440;28;20174;-63
2021/10/13 02:27:33;;;;;;;0.63;0.38;;;15.90;79.20;;;;;;5093856;28;20534;-62
2021/10/13 02:30:00;;;;;;;0.30;0.30;;;15.80;79.20;;;;;;5093491;28;20058;-62
2021/10/13 02:32:25;;;;;;;0.63;0.47;;;15.80;79.20;;;;;;5093280;28;20182;-62
2021/10/13 02:34:53;;;;;;;0.40;0.40;;;15.80;79.20;;;;;;5093627;28;20133;-61
2021/10/13 02:37:19;;;;;;;0.20;0.20;;;15.80;79.20;;;;;;5093193;28;20032;-62
2021/10/13 02:39:45;;;;;;;0.90;0.38;;;15.80;79.10;;;;;;5093899;28;20044;-62
2021/10/13 02:42:10;;;;;;;1.05;0.30;;;15.80;79.20;;;;;;5091635;28;20147;-62
2021/10/13 02:44:37;;;;;;;0.88;0.50;;;15.80;79.20;;;;;;5093690;28;20048;-62
2021/10/13 02:47:54;;;;;;;0.70;0.40;;;15.80;79.20;;;;;;5092867;28;20083;-62
2021/10/13 02:51:07;;;;;;;0.82;0.38;;;15.80;79.20;;;;;;5050768;28;20065;-61
2021/10/13 02:53:44;;;;;;;1.40;0.47;;;15.80;79.20;;;;;;5043595;28;20121;-62
2021/10/13 02:56:20;;;;;;;0.73;0.30;;;15.80;79.20;;;;;;5049891;28;20048;-61
2021/10/13 02:59:00;;;;;;;0.60;0.28;;;15.80;79.20;;;;;;5050932;28;20124;-61
2021/10/13 03:01:33;;;;;;;0.40;0.38;;;15.70;79.10;;;;;;5050415;28;20120;-62
2021/10/13 03:04:02;;;;;;;0.43;0.30;;;15.70;79.10;;;;;;5049625;28;20052;-62
2021/10/13 03:06:38;;;;;;;0.55;0.40;;;15.70;79.10;;;;;;5033691;28;20080;-61
2021/10/13 03:09:06;;;;;;;0.77;0.40;;;15.70;79.10;;;;;;5043798;28;20136;-62
2021/10/13 03:11:33;;;;;;;0.45;0.40;;;15.80;79.80;;;;;;5050260;28;20092;-62
2021/10/13 03:14:00;;;;;;;0.60;0.38;;;15.70;79.10;;;;;;5050364;28;20488;-62
2021/10/13 03:16:27;;;;;;;0.50;0.50;;;15.70;79.10;;;;;;5049270;28;20055;-62
2021/10/13 03:18:55;;;;;;;1.33;0.40;;;15.70;79.10;;;;;;5048777;28;20056;-62
2021/10/13 03:21:25;;;;;;;0.30;0.30;;;15.70;79.10;;;;;;5049656;28;20040;-62
2021/10/13 03:23:51;;;;;;;1.63;0.52;;;15.80;79.80;;;;;;5050042;28;20049;-62
2021/10/13 03:26:17;;;;;;;0.30;0.30;;;15.70;79.10;;;;;;5064368;28;20095;-62
2021/10/13 03:28:43;;;;;;;0.40;0.40;;;15.70;79.20;;;;;;5082495;28;20036;-61
2021/10/13 03:31:10;;;;;;;2.25;0.30;;;15.80;79.10;;;;;;5092665;28;20047;-62
2021/10/13 03:33:36;;;;;;;0.57;0.45;;;15.70;79.10;;;;;;5092605;28;20036;-62
2021/10/13 03:36:03;;;;;;;0.43;0.30;;;15.70;79.80;;;;;;5092125;28;20074;-62
2021/10/13 03:38:29;;;;;;;0.90;0.47;;;15.70;79.10;;;;;;5091129;28;20043;-60
2021/10/13 03:40:56;;;;;;;0.73;0.40;;;15.80;79.10;;;;;;5092636;28;20052;-62
2021/10/13 03:43:22;;;;;;;0.52;0.40;;;15.80;79.20;;;;;;5092621;28;20063;-62
2021/10/13 03:45:48;;;;;;;0.32;0.30;;;15.70;79.10;;;;;;5092569;28;20500;-62
2021/10/13 03:48:13;;;;;;;0.88;0.32;;;15.70;79.10;;;;;;5091926;28;20036;-62
2021/10/13 03:50:39;;;;;;;0.90;0.30;;;15.70;79.10;;;;;;5091715;28;20438;-62
2021/10/13 03:53:05;;;;;;;0.73;0.30;;;15.70;79.10;;;;;;5092251;28;20040;-62
2021/10/13 03:55:30;;;;;;;1.65;0.45;;;15.70;79.00;;;;;;5092826;28;20079;-62
2021/10/13 03:57:56;;;;;;;0.60;0.35;;;15.70;79.10;;;;;;5092156;28;20047;-62
2021/10/13 04:00:22;;;;;;;0.30;0.30;;;15.70;79.10;;;;;;5090645;28;20067;-62
2021/10/13 04:02:48;;;;;;;0.30;0.30;;;15.70;79.10;;;;;;5091978;28;20040;-61
2021/10/13 04:05:14;;;;;;;0.65;0.40;;;15.70;79.10;;;;;;5092231;28;20134;-62
2021/10/13 04:07:40;;;;;;;0.30;0.30;;;15.70;79.00;;;;;;5091645;28;20139;-60
2021/10/13 04:10:09;;;;;;;1.55;0.55;;;15.70;79.00;;;;;;5091470;28;20126;-61
2021/10/13 04:12:35;;;;;;;0.65;0.30;;;15.70;79.10;;;;;;5071851;28;20041;-62
2021/10/13 04:15:05;;;;;;;0.45;0.30;;;15.70;79.00;;;;;;5072563;28;20094;-62
2021/10/13 04:17:33;;;;;;;0.90;0.30;;;15.70;79.00;;;;;;5091923;28;20040;-62
2021/10/13 04:20:01;;;;;;;0.40;0.30;;;15.70;79.10;;;;;;5091610;28;20047;-62
2021/10/13 04:22:27;;;;;;;0.68;0.38;;;15.70;79.10;;;;;;5091141;28;20553;-62
2021/10/13 04:24:52;;;;;;;0.57;0.40;;;15.70;79.10;;;;;;5091816;28;20044;-62
2021/10/13 04:27:18;;;;;;;0.35;0.25;;;15.70;79.00;;;;;;5074087;28;20068;-62
2021/10/13 04:29:44;;;;;;;0.25;0.20;;;15.80;79.00;;;;;;5078479;28;20051;-62
2021/10/13 04:32:09;;;;;;;1.13;0.50;;;15.70;79.00;;;;;;5096054;28;20048;-62
2021/10/13 04:34:35;;;;;;;0.73;0.40;;;15.70;79.00;;;;;;5094341;28;20056;-62
2021/10/13 04:37:01;;;;;;;0.30;0.30;;;15.70;79.00;;;;;;5095799;28;20077;-62
2021/10/13 04:39:26;;;;;;;0.22;0.20;;;15.70;79.00;;;;;;5095706;28;20509;-62
2021/10/13 04:41:52;;;;;;;0.38;0.30;;;15.70;79.10;;;;;;5096087;28;20044;-61
2021/10/13 04:44:18;;;;;;;0.75;0.50;;;15.70;79.00;;;;;;5095970;28;20435;-62
2021/10/13 04:46:43;;;;;;;0.40;0.38;;;15.70;79.00;;;;;;5095870;28;20044;-62
2021/10/13 04:49:09;;;;;;;0.55;0.40;;;15.70;79.00;;;;;;5095570;28;20036;-62
2021/10/13 04:51:35;;;;;;;0.30;0.30;;;15.70;79.10;;;;;;5095516;28;20044;-62
2021/10/13 04:54:00;;;;;;;1.67;0.30;;;15.70;79.10;;;;;;5094829;28;20044;-62
2021/10/13 04:56:26;;;;;;;0.38;0.20;;;15.60;79.00;;;;;;5095287;28;20052;-62
2021/10/13 04:58:52;;;;;;;0.50;0.30;;;15.70;79.00;;;;;;5094956;28;20099;-63
2021/10/13 05:01:17;;;;;;;0.55;0.45;;;15.70;79.00;;;;;;5095553;28;20135;-62
2021/10/13 05:03:43;;;;;;;1.55;0.35;;;15.70;79.00;;;;;;5095286;28;20036;-61
2021/10/13 05:06:09;;;;;;;0.20;0.20;;;15.70;79.00;;;;;;5095784;28;20036;-63
2021/10/13 05:08:34;;;;;;;0.20;0.20;;;15.70;79.00;;;;;;5095174;28;20028;-62
2021/10/13 05:11:00;;;;;;;0.40;0.40;;;15.70;79.00;;;;;;5094772;28;20120;-62
2021/10/13 05:13:26;;;;;;;0.20;0.20;;;15.70;79.00;;;;;;5094982;28;20036;-63
2021/10/13 05:15:54;;;;;;;0.43;0.40;;;15.70;79.00;;;;;;5093728;28;20047;-63
2021/10/13 05:18:20;;;;;;;0.30;0.30;;;15.60;78.90;;;;;;5094838;28;20028;-63
2021/10/13 05:20:46;;;;;;;0.50;0.30;;;15.70;79.00;;;;;;5094582;28;20086;-63
2021/10/13 05:23:12;;;;;;;0.20;0.20;;;15.70;79.00;;;;;;5093382;28;20044;-63
2021/10/13 05:25:38;;;;;;;0.30;0.30;;;15.70;79.00;;;;;;5094032;28;20036;-61
2021/10/13 05:28:04;;;;;;;0.40;0.40;;;15.70;79.00;;;;;;5095019;28;20036;-63
2021/10/13 05:30:29;;;;;;;0.50;0.30;;;15.70;79.00;;;;;;5094489;28;20134;-62
2021/10/13 05:32:55;;;;;;;1.10;0.40;;;15.70;79.00;;;;;;5094971;28;20402;-63
2021/10/13 05:35:22;;;;;;;0.32;0.32;;;15.60;78.90;;;;;;5094644;28;20072;-64
2021/10/13 05:37:48;;;;;;;0.50;0.40;;;15.70;79.00;;;;;;5094147;28;20079;-62
2021/10/13 05:40:13;;;;;;;0.22;0.20;;;15.70;79.00;;;;;;5093722;28;20044;-62
2021/10/13 05:42:39;;;;;;;0.45;0.22;;;15.70;79.00;;;;;;5093295;28;20047;-60
2021/10/13 05:45:05;;;;;;;0.65;0.32;;;15.60;79.00;;;;;;5093730;28;20492;-62
2021/10/13 05:47:31;;;;;;;0.38;0.38;;;15.70;79.00;;;;;;5093800;28;20128;-60
2021/10/13 05:49:57;;;;;;;0.30;0.30;;;15.70;79.00;;;;;;5093390;28;20083;-63
2021/10/13 05:52:23;;;;;;;0.57;0.40;;;15.70;79.00;;;;;;5094315;28;20032;-63
2021/10/13 05:54:48;;;;;;;0.35;0.30;;;15.70;79.00;;;;;;5094330;28;20127;-63
2021/10/13 05:57:14;;;;;;;0.52;0.38;;;15.60;79.00;;;;;;5093348;28;20040;-63
2021/10/13 05:59:41;;;;;;;0.40;0.30;;;15.70;79.00;;;;;;5094572;28;20119;-63
2021/10/13 06:02:07;;;;;;;0.85;0.40;;;15.70;79.00;;;;;;5094381;28;20089;-63
2021/10/13 06:04:33;;;;;;;0.93;0.40;;;15.70;79.00;;;;;;5093477;28;20503;-62
2021/10/13 06:06:58;;;;;;;0.50;0.30;;;15.70;79.00;;;;;;5092637;28;20051;-64
2021/10/13 06:09:24;;;;;;;1.40;0.50;;;15.70;79.60;;;;;;5093612;28;20032;-63
2021/10/13 06:11:50;;;;;;;0.40;0.40;;;15.60;78.90;;;;;;5094156;28;20040;-62
2021/10/13 06:14:15;;;;;;;0.98;0.30;;;15.80;79.00;;;;;;5093033;28;20059;-61
2021/10/13 06:16:41;;;;;;;0.45;0.35;;;15.70;78.90;;;;;;5093682;28;20090;-61
2021/10/13 06:19:06;;;;;;;1.58;0.32;;;15.60;78.80;;;;;;5093228;28;20036;-61
2021/10/13 06:21:32;;;;;;;0.63;0.40;;;15.70;78.90;;;;;;5093437;28;20131;-62
2021/10/13 06:23:58;;;;;;;1.45;0.47;;;15.70;78.90;;;;;;5093589;28;20058;-62
2021/10/13 06:26:23;;;;;;;0.47;0.30;;;15.70;78.90;;;;;;5093919;28;20115;-62
2021/10/13 06:28:50;;;;;;;0.60;0.40;;;15.70;78.90;;;;;;5093309;28;20361;-61
2021/10/13 06:31:16;;;;;;;0.30;0.30;;;15.70;78.90;;;;;;5093508;28;20070;-63
2021/10/13 06:33:41;;;;;;;1.40;0.50;;;15.60;78.80;;;;;;5093675;28;20097;-61
2021/10/13 06:36:07;;;;;;;1.60;0.60;;;15.70;79.20;;;;;;5093695;28;20086;-62
2021/10/13 06:38:34;;;;;;;0.38;0.20;;;15.70;78.90;;;;;;5092470;28;20040;-62
2021/10/13 06:41:01;;;;;;;0.30;0.30;;;15.70;78.90;;;;;;5092984;28;20044;-63
2021/10/13 06:43:27;;;;;;;0.32;0.28;;;15.70;78.90;;;;;;5092917;28;20040;-63
2021/10/13 06:45:54;;;;;;;0.60;0.38;;;15.70;78.80;;;;;;5092709;28;20067;-61
2021/10/13 06:48:21;;;;;;;1.08;0.43;;;15.70;78.90;;;;;;5093235;28;20085;-62
2021/10/13 06:50:47;;;;;;;0.38;0.30;;;15.70;78.80;;;;;;5092022;28;20087;-62
2021/10/13 06:53:13;;;;;;;0.85;0.30;;;15.70;78.80;;;;;;5091924;28;20048;-61
2021/10/13 06:55:39;;;;;;;0.30;0.30;;;15.70;78.80;;;;;;5093127;28;20039;-62
2021/10/13 06:58:05;;;;;;;0.65;0.40;;;15.70;78.90;;;;;;5092849;28;20091;-63
2021/10/13 07:00:31;;;;;;;0.35;0.28;;;15.70;78.90;;;;;;5092419;28;20051;-67
2021/10/13 07:02:57;;;;;;;4.90;1.20;;;15.70;78.80;;;;;;5092232;28;20047;-64
2021/10/13 07:05:23;;;;;;;2.15;1.30;;;15.70;77.40;;;;;;5092646;28;20532;-66
2021/10/13 07:07:49;;;;;;;2.65;1.02;;;15.60;76.60;;;;;;5093066;28;20391;-60
2021/10/13 07:10:17;;;;;;;3.15;0.90;;;15.60;76.30;;;;;;5091495;28;20047;-66
2021/10/13 07:12:53;;;;;;;3.15;0.98;;;15.50;76.10;;;;;;5150946;27;20333;-63
2021/10/13 07:15:18;;;;;;;3.22;0.90;;;15.50;75.90;;;;;;5151353;27;20054;-65
2021/10/13 07:17:44;;;;;;;2.13;0.95;;;15.50;75.70;;;;;;5149890;27;20035;-64
2021/10/13 07:20:11;;;;;;;3.88;1.17;;;15.50;75.60;;;;;;5150808;27;20046;-65
2021/10/13 07:22:38;;;;;;;4.25;0.90;;;15.40;75.50;;;;;;5150109;27;20316;-64
2021/10/13 07:25:05;;;;;;;4.82;1.00;;;15.40;76.10;;;;;;5132153;27;20057;-63
2021/10/13 07:27:31;;;;;;;2.25;0.90;;;15.40;75.40;;;;;;5150988;27;20139;-64
2021/10/13 07:29:58;;;;;;;5.55;0.98;;;15.40;75.40;;;;;;5150905;27;20122;-62
2021/10/13 07:32:25;;;;;;;1.60;0.93;;;15.40;75.40;;;;;;5149856;27;20091;-65
2021/10/13 07:34:51;;;;;;;3.38;1.10;;;15.40;75.50;;;;;;5150730;27;20091;-65
2021/10/13 07:37:17;;;;;;;2.40;1.33;;;15.40;75.50;;;;;;5150443;27;20379;-65
2021/10/13 07:39:43;;;;;;;2.45;0.68;;;15.40;75.50;;;;;;5131448;27;20055;-67
2021/10/13 07:42:08;;;;;;;4.65;1.23;;;15.30;75.60;;;;;;5150503;27;20046;-63
2021/10/13 07:44:35;;;;;;;2.17;1.08;;;15.30;75.70;;;;;;5131875;27;20058;-66
2021/10/13 07:47:01;;;;;;;1.67;1.10;;;15.30;75.80;;;;;;5150485;27;20139;-66
2021/10/13 07:49:27;;;;;;;2.88;0.90;;;15.40;75.90;;;;;;5150266;27;20039;-65
2021/10/13 07:51:52;;;;;;;3.05;1.00;;;15.30;75.90;;;;;;5150161;27;20047;-64
2021/10/13 07:54:20;;;;;;;3.75;0.80;;;15.30;75.90;;;;;;5131305;27;20051;-67
2021/10/13 07:56:49;;;;;;;1.85;0.95;;;15.30;76.00;;;;;;5150275;27;20038;-66
2021/10/13 07:59:14;;;;;;;1.73;0.88;;;15.30;76.10;;;;;;5150025;27;20045;-67
2021/10/13 08:01:40;;;;;;;2.95;1.10;;;15.30;76.20;;;;;;5149998;27;20410;-65
2021/10/13 08:04:06;;;;;;;3.30;0.85;;;15.40;76.30;;;;;;5129768;27;20043;-65
2021/10/13 08:06:32;;;;;;;2.17;1.00;;;15.30;76.30;;;;;;5149946;27;20043;-67
2021/10/13 08:08:58;;;;;;;1.70;0.90;;;15.30;76.50;;;;;;5149688;27;20031;-66
2021/10/13 08:11:24;;;;;;;1.65;0.77;;;15.30;76.50;;;;;;5149515;27;20150;-66
2021/10/13 08:13:49;;;;;;;4.82;1.08;;;15.40;76.60;;;;;;5149339;27;20066;-67
2021/10/13 08:16:15;;;;;;;3.28;1.20;;;15.40;76.60;;;;;;5149368;27;20113;-65
2021/10/13 08:18:41;;;;;;;3.22;0.88;;;15.30;76.40;;;;;;5149657;27;20630;-64
2021/10/13 08:21:07;;;;;;;4.10;1.40;;;15.30;76.50;;;;;;5149126;27;20173;-62
2021/10/13 08:23:33;;;;;;;3.05;0.80;;;15.30;76.30;;;;;;5139739;27;20042;-65
2021/10/13 08:26:01;;;;;;;2.10;0.93;;;15.40;76.40;;;;;;5135344;27;20390;-64
2021/10/13 08:28:27;;;;;;;1.98;0.70;;;15.30;76.40;;;;;;5135827;27;20039;-65
2021/10/13 08:30:54;;;;;;;2.38;0.70;;;15.30;76.40;;;;;;5116654;27;20039;-65
2021/10/13 08:33:20;;;;;;;3.50;0.90;;;15.30;76.50;;;;;;5117237;27;20065;-66
2021/10/13 08:35:45;;;;;;;1.70;0.70;;;15.30;76.60;;;;;;5134940;27;20054;-65
2021/10/13 08:38:11;;;;;;;0.88;0.77;;;15.40;76.70;;;;;;5135707;27;20050;-65
2021/10/13 08:40:37;;;;;;;3.03;1.00;;;15.30;76.70;;;;;;5135802;27;20129;-65
2021/10/13 08:43:04;;;;;;;2.70;0.82;;;15.30;76.70;;;;;;5135422;27;20123;-64
2021/10/13 08:45:32;;;;;;;1.40;0.68;;;15.30;76.90;;;;;;5135333;27;20386;-65
2021/10/13 08:47:58;;;;;;;1.58;0.63;;;15.30;76.90;;;;;;5135063;27;20492;-64
2021/10/13 08:50:26;;;;;;;1.73;0.90;;;15.30;76.90;;;;;;5135160;27;20151;-64
2021/10/13 08:52:53;;;;;;;1.48;0.80;;;15.40;77.10;;;;;;5134786;27;20111;-66
2021/10/13 08:55:20;;;;;;;1.85;0.70;;;15.40;77.10;;;;;;5135596;27;20054;-65
2021/10/13 08:57:45;;;;;;;2.63;0.70;;;15.30;77.10;;;;;;5134750;27;20429;-60
2021/10/13 09:00:22;;;;;;;2.65;0.82;;;15.30;77.20;;;;;;5135416;27;20082;-61
2021/10/13 09:02:48;;;;;;;1.58;0.70;;;15.40;77.30;;;;;;5135563;27;20039;-61
2021/10/13 09:05:20;;;;;;;2.70;0.63;;;15.40;77.20;;;;;;5135100;27;20089;-60
2021/10/13 09:07:50;;;;;;;2.85;0.95;;;15.40;77.50;;;;;;5134354;27;20532;-59
2021/10/13 09:10:31;;;;;;;1.23;0.52;;;15.40;77.50;;;;;;5134856;27;20057;-60
2021/10/13 09:13:02;;;;;;;1.67;0.70;;;15.40;77.50;;;;;;5116523;27;20066;-60
2021/10/13 09:15:29;;;;;;;3.20;0.63;;;15.40;78.10;;;;;;5135254;27;20035;-60
2021/10/13 09:17:57;;;;;;;2.03;0.80;;;15.30;77.40;;;;;;5135328;27;20448;-61
2021/10/13 09:20:26;;;;;;;1.23;0.65;;;15.40;77.50;;;;;;5134824;27;20088;-60
2021/10/13 09:23:16;;;;;;;2.25;0.68;;;15.40;77.70;;;;;;5134822;27;20091;-61
2021/10/13 09:25:59;;;;;;;0.73;0.50;;;15.40;77.70;;;;;;5122196;27;20194;-60
2021/10/13 09:28:25;;;;;;;2.05;0.60;;;15.40;77.70;;;;;;5135071;27;20071;-60
2021/10/13 09:30:50;;;;;;;2.45;0.98;;;15.40;77.60;;;;;;5134497;27;20074;-61
2021/10/13 09:33:18;;;;;;;1.27;0.50;;;15.40;77.50;;;;;;5116298;27;20146;-60
2021/10/13 09:35:58;;;;;;;1.58;0.80;;;15.40;77.40;;;;;;5133761;27;20035;-60
2021/10/13 09:38:26;;;;;;;2.00;0.52;;;15.40;77.30;;;;;;5133950;27;20046;-60
2021/10/13 09:41:00;;;;;;;1.65;0.70;;;15.40;77.20;;;;;;5133919;27;20043;-60
2021/10/13 09:43:36;;;;;;;2.63;0.80;;;15.40;77.40;;;;;;5125338;27;20081;-61
2021/10/13 09:46:10;;;;;;;1.80;0.63;;;15.40;77.30;;;;;;5119508;27;20468;-64
2021/10/13 09:48:39;;;;;;;0.65;0.60;;;15.40;77.20;;;;;;5094770;28;20051;-60
2021/10/13 09:51:22;;;;;;;2.55;0.88;;;15.40;77.20;;;;;;5121640;27;20042;-60
2021/10/13 09:53:50;;;;;;;1.83;0.60;;;15.40;77.30;;;;;;5134635;27;20062;-61
2021/10/13 09:56:36;;;;;;;1.83;0.60;;;15.40;77.10;;;;;;5147752;27;20091;-60
2021/10/13 09:59:16;;;;;;;1.75;0.82;;;15.40;77.20;;;;;;5133915;27;20047;-61
2021/10/13 10:01:52;;;;;;;0.95;0.77;;;15.40;77.20;;;;;;5133920;27;20051;-59
2021/10/13 10:04:21;;;;;;;1.58;0.60;;;15.40;77.20;;;;;;5115428;27;20050;-61
2021/10/13 10:06:56;;;;;;;2.40;0.57;;;15.40;77.10;;;;;;5133991;27;20130;-61
2021/10/13 10:09:24;;;;;;;1.08;0.60;;;15.40;77.20;;;;;;5149799;27;20088;-61
2021/10/13 10:12:03;;;;;;;2.40;0.60;;;15.40;77.20;;;;;;5114168;27;20070;-61
2021/10/13 10:14:35;;;;;;;0.73;0.40;;;15.40;77.20;;;;;;5149718;27;20039;-61
2021/10/13 10:17:04;;;;;;;2.45;0.50;;;15.40;77.30;;;;;;5149425;27;20149;-62
2021/10/13 10:19:37;;;;;;;2.63;0.52;;;15.40;77.20;;;;;;5133782;27;20344;-64
2021/10/13 10:22:15;;;;;;;1.17;0.80;;;15.40;77.30;;;;;;5133362;27;20368;-63
2021/10/13 10:24:52;;;;;;;2.58;1.15;;;15.40;77.40;;;;;;5115918;27;20039;-65
2021/10/13 10:27:23;;;;;;;2.80;0.90;;;15.40;77.40;;;;;;5097232;27;20099;-63
2021/10/13 10:30:07;;;;;;;1.25;0.65;;;15.40;77.40;;;;;;5114534;27;20050;-65
2021/10/13 10:32:34;;;;;;;4.32;0.80;;;15.40;77.40;;;;;;5133270;27;20039;-65
2021/10/13 10:35:06;;;;;;;1.15;0.70;;;15.40;77.50;;;;;;5132666;27;20074;-64
2021/10/13 10:37:49;;;;;;;2.53;0.60;;;15.40;77.50;;;;;;5133465;27;20065;-65
2021/10/13 10:40:41;;;;;;;0.77;0.38;;;15.40;77.40;;;;;;5114889;27;20043;-63
2021/10/13 10:43:19;;;;;;;1.63;0.50;;;15.40;77.50;;;;;;5110838;27;20380;-65
2021/10/13 10:45:59;;;;;;;2.22;0.50;;;15.40;77.40;;;;;;5132676;27;20062;-62
2021/10/13 10:48:41;;;;;;;2.25;0.70;;;15.40;77.20;;;;;;5133358;27;20035;-66
2021/10/13 10:51:07;;;;;;;0.57;0.40;;;15.40;77.10;;;;;;5115022;27;20122;-63
2021/10/13 10:53:38;;;;;;;0.65;0.40;;;15.40;77.00;;;;;;5113587;27;20506;-62
2021/10/13 10:56:09;;;;;;;0.95;0.57;;;15.40;76.90;;;;;;5132828;27;20042;-65
2021/10/13 10:58:36;;;;;;;0.68;0.30;;;15.50;76.90;;;;;;5131736;27;20053;-65
2021/10/13 11:01:13;;;;;;;1.52;0.50;;;15.50;76.80;;;;;;5132826;27;20243;-63
2021/10/13 11:03:40;;;;;;;1.65;0.65;;;15.50;76.90;;;;;;5130240;28;20039;-62
2021/10/13 11:06:09;;;;;;;0.95;0.60;;;15.50;76.90;;;;;;5128393;27;20043;-62
2021/10/13 11:08:35;;;;;;;1.83;0.73;;;15.50;76.80;;;;;;5128653;27;20043;-63
2021/10/13 11:11:13;;;;;;;0.95;0.43;;;15.40;76.80;;;;;;5129288;28;20405;-64
2021/10/13 11:13:39;;;;;;;1.15;0.70;;;15.50;76.90;;;;;;5129601;28;20452;-61
2021/10/13 11:16:08;;;;;;;0.57;0.50;;;15.50;76.90;;;;;;5129642;28;20066;-60
2021/10/13 11:18:36;;;;;;;2.65;0.63;;;15.50;76.90;;;;;;5129027;28;20035;-63
2021/10/13 11:21:12;;;;;;;1.23;0.63;;;15.50;76.80;;;;;;5129258;28;20367;-61
2021/10/13 11:23:38;;;;;;;1.67;0.85;;;15.50;77.00;;;;;;5129648;28;20039;-62
2021/10/13 11:26:04;;;;;;;2.70;0.77;;;15.50;77.50;;;;;;5110789;28;20130;-60
2021/10/13 11:28:38;;;;;;;2.28;0.88;;;15.50;76.90;;;;;;5129309;28;20039;-60
2021/10/13 11:31:05;;;;;;;2.03;0.57;;;15.50;76.80;;;;;;5128675;28;20153;-59
2021/10/13 11:33:31;;;;;;;3.30;1.33;;;15.50;76.80;;;;;;5110226;28;20047;-59
2021/10/13 11:36:10;;;;;;;1.42;0.80;;;15.50;76.70;;;;;;5109358;28;20058;-59
2021/10/13 11:38:39;;;;;;;1.70;0.70;;;15.50;76.80;;;;;;5128974;28;20457;-58
2021/10/13 11:41:09;;;;;;;2.75;0.82;;;15.50;76.80;;;;;;5129293;28;20039;-60
2021/10/13 11:43:36;;;;;;;1.55;0.60;;;15.60;76.80;;;;;;5129266;28;20047;-60
2021/10/13 11:46:02;;;;;;;0.70;0.60;;;15.50;76.80;;;;;;5128473;28;20035;-59
2021/10/13 11:48:31;;;;;;;1.45;0.65;;;15.50;76.90;;;;;;5129143;28;20050;-59
2021/10/13 11:51:00;;;;;;;0.98;0.60;;;15.50;76.90;;;;;;5129327;28;20138;-59
2021/10/13 11:53:27;;;;;;;4.85;0.80;;;15.50;76.80;;;;;;5110288;28;20043;-64
2021/10/13 11:55:53;;;;;;;2.65;0.73;;;15.50;76.70;;;;;;5128897;28;20043;-62
2021/10/13 11:58:30;;;;;;;2.28;0.93;;;15.50;76.70;;;;;;5130481;27;20043;-63
2021/10/13 12:00:57;;;;;;;2.00;0.80;;;15.50;76.70;;;;;;5114489;27;20046;-65
2021/10/13 12:03:47;;;;;;;3.58;0.82;;;15.60;76.90;;;;;;5133072;27;20050;-59
2021/10/13 12:06:13;;;;;;;1.67;1.00;;;15.60;76.90;;;;;;5133013;27;20095;-58
2021/10/13 12:08:41;;;;;;;2.95;0.70;;;15.50;77.10;;;;;;5113692;27;20055;-60
2021/10/13 12:11:09;;;;;;;7.45;1.30;;;15.60;77.20;;;;;;5132276;27;20059;-59
2021/10/13 12:13:37;;;;;;;4.53;1.10;;;15.60;77.00;;;;;;5132658;27;20047;-65
2021/10/13 12:16:09;;;;;;;2.83;1.08;;;15.50;76.60;;;;;;5115827;27;20055;-62
2021/10/13 12:18:40;;;;;;;2.63;0.90;;;15.50;76.50;;;;;;5116487;27;20047;-65
2021/10/13 12:21:13;;;;;;;2.83;0.77;;;15.60;76.60;;;;;;5126790;27;20168;-61
2021/10/13 12:23:41;;;;;;;2.83;1.08;;;15.60;76.40;;;;;;5101224;28;20048;-60
2021/10/13 12:26:24;;;;;;;2.95;1.00;;;15.60;76.40;;;;;;5115290;28;20123;-66
2021/10/13 12:28:55;;;;;;;4.72;1.15;;;15.60;76.50;;;;;;5096817;28;20166;-61
2021/10/13 12:31:24;;;;;;;4.75;1.17;;;15.60;76.30;;;;;;5115189;28;20127;-65
2021/10/13 12:33:58;;;;;;;4.72;1.20;;;15.60;76.20;;;;;;5114806;28;20122;-65
2021/10/13 12:36:34;;;;;;;2.72;1.02;;;15.60;76.20;;;;;;5096595;28;20104;-64
2021/10/13 12:39:09;;;;;;;3.25;1.05;;;15.50;76.10;;;;;;5122904;27;20082;-66
2021/10/13 12:41:39;;;;;;;2.35;1.10;;;15.60;76.00;;;;;;5114796;28;20039;-67
2021/10/13 12:44:12;;;;;;;1.77;0.70;;;15.50;75.80;;;;;;5114841;28;20047;-65
2021/10/13 12:46:38;;;;;;;3.13;1.27;;;15.60;75.90;;;;;;5096595;28;20214;-64
2021/10/13 12:49:16;;;;;;;3.30;1.27;;;15.60;76.40;;;;;;5114261;28;20118;-65
2021/10/13 12:52:00;;;;;;;3.50;1.20;;;15.60;75.80;;;;;;5095858;28;20132;-65
2021/10/13 12:54:31;;;;;;;1.58;1.00;;;15.60;76.00;;;;;;5114562;27;20548;-63
2021/10/13 12:56:57;;;;;;;3.88;1.33;;;15.60;75.90;;;;;;5115391;27;20043;-61
2021/10/13 12:59:24;;;;;;;5.75;1.95;;;15.60;75.80;;;;;;5135312;27;20118;-68